Time;durP1;ratioP1;P1;durP2;ratioP2;P2;SDS_P1;SDS_P2;PMS_P1;PMS_P2;Temp;Humidity;BMP_temperature;BMP_pressure;BME280_temperature;BME280_humidity;BME280_pressure;Samples;Min_cycle;Max_cycle;Signal;HPM_P1;HPM_P2
2021/07/23 00:00:48;;;;;;;11.68;8.95;;;19.80;99.90;;;;;;5035806;28;20104;-91
2021/07/23 00:03:14;;;;;;;14.70;9.20;;;19.70;99.90;;;;;;5053424;28;20061;-91
2021/07/23 00:05:40;;;;;;;11.07;9.20;;;19.80;99.90;;;;;;5035553;28;20079;-91
2021/07/23 00:08:06;;;;;;;15.18;8.70;;;19.70;99.90;;;;;;5035371;28;20052;-90
2021/07/23 00:10:32;;;;;;;13.27;9.25;;;19.80;99.90;;;;;;5053254;28;20481;-91
2021/07/23 00:12:57;;;;;;;12.15;8.85;;;19.60;99.90;;;;;;5035683;28;20044;-91
2021/07/23 00:15:23;;;;;;;11.93;8.57;;;19.70;99.90;;;;;;5053209;28;20472;-90
2021/07/23 00:17:49;;;;;;;14.73;8.40;;;19.80;99.90;;;;;;5035581;28;20384;-91
2021/07/23 00:20:14;;;;;;;15.93;8.60;;;19.80;99.90;;;;;;5035494;28;20032;-91
2021/07/23 00:22:40;;;;;;;13.13;9.05;;;19.70;99.90;;;;;;5035441;28;20028;-90
2021/07/23 00:25:06;;;;;;;14.05;9.32;;;19.70;99.90;;;;;;5053350;28;20021;-90
2021/07/23 00:27:32;;;;;;;14.45;9.02;;;19.60;99.90;;;;;;5035527;28;20464;-90
2021/07/23 00:29:58;;;;;;;13.43;8.73;;;19.70;99.90;;;;;;5036494;28;20029;-89
2021/07/23 00:32:23;;;;;;;14.00;8.88;;;19.90;99.90;;;;;;5050995;28;20032;-90
2021/07/23 00:34:49;;;;;;;11.35;8.38;;;19.80;99.90;;;;;;5065022;28;20033;-90
2021/07/23 00:37:15;;;;;;;13.68;8.80;;;19.70;99.90;;;;;;5053273;28;20025;-90
2021/07/23 00:39:40;;;;;;;10.77;8.95;;;19.90;99.90;;;;;;5020677;28;20021;-91
2021/07/23 00:42:06;;;;;;;13.40;8.90;;;19.70;99.90;;;;;;5019371;28;20029;-90
2021/07/23 00:44:31;;;;;;;15.05;8.55;;;19.80;99.90;;;;;;5019095;28;20026;-90
2021/07/23 00:46:57;;;;;;;15.40;8.73;;;19.70;99.90;;;;;;5019196;28;20018;-91
2021/07/23 00:49:24;;;;;;;12.10;9.30;;;19.70;99.90;;;;;;5019168;28;20052;-91
2021/07/23 00:51:51;;;;;;;15.10;8.85;;;19.70;99.90;;;;;;5018988;28;20030;-90
2021/07/23 00:54:19;;;;;;;13.35;8.73;;;19.80;99.90;;;;;;5018982;28;20064;-90
2021/07/23 00:56:45;;;;;;;12.20;9.02;;;19.70;99.90;;;;;;5019263;28;20057;-90
2021/07/23 00:59:11;;;;;;;13.65;8.90;;;19.80;99.90;;;;;;5036594;28;20076;-90
2021/07/23 01:01:37;;;;;;;14.80;8.48;;;19.70;99.90;;;;;;5018895;28;20037;-90
2021/07/23 01:04:03;;;;;;;12.00;8.65;;;19.40;99.90;;;;;;5018757;28;20021;-90
2021/07/23 01:06:30;;;;;;;12.52;8.90;;;19.40;99.90;;;;;;5018910;28;20026;-90
2021/07/23 01:08:56;;;;;;;14.00;8.88;;;19.50;99.90;;;;;;5035348;28;20057;-91
2021/07/23 01:11:25;;;;;;;12.57;8.48;;;19.50;99.90;;;;;;5036495;28;20029;-90
2021/07/23 01:13:50;;;;;;;12.85;8.45;;;19.40;99.90;;;;;;5018730;28;20033;-90
2021/07/23 01:16:16;;;;;;;13.20;8.93;;;19.20;99.90;;;;;;5018627;28;20532;-90
2021/07/23 01:18:42;;;;;;;14.80;8.75;;;19.30;99.90;;;;;;5018478;28;20033;-91
2021/07/23 01:21:09;;;;;;;11.00;8.30;;;19.20;99.90;;;;;;5019120;28;20025;-91
2021/07/23 01:23:36;;;;;;;15.88;8.90;;;19.10;99.90;;;;;;5018433;28;20032;-90
2021/07/23 01:26:04;;;;;;;11.93;8.48;;;19.40;99.90;;;;;;5018483;28;20030;-91
2021/07/23 01:28:32;;;;;;;11.25;8.77;;;19.40;99.90;;;;;;5036282;28;20408;-90
2021/07/23 01:31:01;;;;;;;16.55;8.90;;;19.20;99.90;;;;;;5018545;28;20049;-91
2021/07/23 01:33:26;;;;;;;14.00;9.25;;;18.90;99.90;;;;;;5018300;28;20017;-91
2021/07/23 01:35:52;;;;;;;13.13;8.73;;;18.80;99.90;;;;;;5018740;28;20024;-90
2021/07/23 01:38:20;;;;;;;12.80;8.57;;;19.00;99.90;;;;;;5030671;28;20048;-90
2021/07/23 01:40:46;;;;;;;14.77;8.73;;;19.10;99.90;;;;;;5039985;28;20028;-90
2021/07/23 01:43:15;;;;;;;11.73;8.73;;;19.00;99.90;;;;;;5039908;28;20025;-91
2021/07/23 01:45:41;;;;;;;17.00;9.20;;;19.00;99.90;;;;;;5039771;28;20017;-91
2021/07/23 01:48:07;;;;;;;12.80;8.95;;;19.20;99.90;;;;;;5038788;28;20140;-90
2021/07/23 01:50:33;;;;;;;10.57;8.40;;;19.50;99.90;;;;;;5038930;28;20067;-91
2021/07/23 01:52:58;;;;;;;14.55;9.18;;;19.50;99.90;;;;;;5039460;28;20029;-91
2021/07/23 01:55:24;;;;;;;11.35;8.52;;;19.30;99.90;;;;;;5039117;28;20369;-90
2021/07/23 01:57:50;;;;;;;12.82;8.48;;;19.30;99.90;;;;;;5038172;28;20098;-90
2021/07/23 02:00:16;;;;;;;11.88;8.38;;;19.10;99.90;;;;;;5060340;28;20027;-90
2021/07/23 02:02:42;;;;;;;14.20;8.50;;;18.90;99.90;;;;;;5041330;28;20021;-91
2021/07/23 02:05:08;;;;;;;12.43;8.68;;;19.00;99.90;;;;;;5039697;28;20499;-90
2021/07/23 02:07:34;;;;;;;18.20;9.20;;;18.80;99.90;;;;;;5039970;28;20021;-90
2021/07/23 02:10:00;;;;;;;10.23;8.15;;;18.90;99.90;;;;;;5039765;28;20123;-90
2021/07/23 02:12:26;;;;;;;12.63;8.73;;;18.60;99.90;;;;;;5040920;28;20025;-91
2021/07/23 02:14:52;;;;;;;15.15;8.57;;;18.70;99.90;;;;;;5037909;28;20029;-91
2021/07/23 02:17:18;;;;;;;10.85;8.25;;;18.70;99.90;;;;;;5055236;28;20060;-90
2021/07/23 02:19:43;;;;;;;13.70;9.00;;;18.60;99.90;;;;;;5037037;28;20485;-90
2021/07/23 02:22:09;;;;;;;12.13;8.60;;;19.00;99.90;;;;;;5037050;28;20025;-90
2021/07/23 02:24:35;;;;;;;11.13;8.80;;;19.00;99.90;;;;;;5036948;28;20017;-91
2021/07/23 02:27:00;;;;;;;13.77;8.25;;;19.20;99.90;;;;;;5054777;28;20017;-91
2021/07/23 02:29:26;;;;;;;10.65;8.00;;;19.10;99.90;;;;;;5037187;28;20035;-90
2021/07/23 02:31:52;;;;;;;12.00;8.60;;;19.20;99.90;;;;;;5036898;28;20029;-91
2021/07/23 02:34:18;;;;;;;12.60;8.57;;;19.10;99.90;;;;;;5036911;28;20112;-90
2021/07/23 02:36:43;;;;;;;12.45;8.18;;;19.10;99.90;;;;;;5036675;28;20031;-90
2021/07/23 02:39:09;;;;;;;12.05;8.32;;;19.10;99.90;;;;;;5036529;28;20049;-90
2021/07/23 02:41:35;;;;;;;9.82;8.02;;;19.00;99.90;;;;;;5052678;28;20134;-90
2021/07/23 02:44:01;;;;;;;12.40;8.65;;;18.90;99.90;;;;;;5051787;28;20021;-91
2021/07/23 02:46:27;;;;;;;15.35;9.13;;;18.90;99.90;;;;;;5038657;28;20020;-90
2021/07/23 02:48:53;;;;;;;10.23;8.07;;;18.70;99.90;;;;;;5037661;28;20128;-91
2021/07/23 02:51:18;;;;;;;13.32;8.20;;;18.80;99.90;;;;;;5037186;28;20036;-91
2021/07/23 02:53:44;;;;;;;14.23;8.27;;;18.80;99.90;;;;;;5036709;28;20476;-90
2021/07/23 02:56:10;;;;;;;16.63;8.98;;;18.60;99.90;;;;;;5036505;28;20044;-90
2021/07/23 02:58:37;;;;;;;12.07;8.90;;;18.60;99.90;;;;;;5036409;28;20036;-90
2021/07/23 03:01:07;;;;;;;15.07;7.68;;;18.70;99.90;;;;;;5035790;28;20024;-91
2021/07/23 03:03:33;;;;;;;11.85;8.45;;;18.80;99.90;;;;;;5036482;28;20078;-91
2021/07/23 03:05:59;;;;;;;17.52;9.15;;;19.10;99.90;;;;;;5036388;28;20029;-90
2021/07/23 03:08:26;;;;;;;11.40;8.13;;;19.00;99.90;;;;;;5036669;28;20388;-90
2021/07/23 03:10:51;;;;;;;12.48;8.82;;;18.70;99.90;;;;;;5036234;28;20445;-90
2021/07/23 03:13:17;;;;;;;11.77;7.97;;;18.80;99.90;;;;;;5036376;28;20053;-91
2021/07/23 03:15:43;;;;;;;12.25;8.60;;;18.80;99.90;;;;;;5036425;28;20021;-90
2021/07/23 03:18:08;;;;;;;14.85;8.30;;;18.80;99.90;;;;;;5054005;28;20036;-91
2021/07/23 03:20:36;;;;;;;12.90;8.52;;;18.70;99.90;;;;;;5053891;28;20029;-90
2021/07/23 03:23:06;;;;;;;12.80;8.18;;;18.60;99.90;;;;;;5036710;28;20036;-91
2021/07/23 03:25:32;;;;;;;11.70;8.38;;;18.80;99.90;;;;;;5036089;28;20021;-91
2021/07/23 03:27:59;;;;;;;13.05;7.90;;;18.70;99.90;;;;;;5035837;28;20024;-90
2021/07/23 03:30:25;;;;;;;15.27;8.60;;;18.70;99.90;;;;;;5035986;28;20158;-91
2021/07/23 03:32:50;;;;;;;15.07;8.55;;;18.60;99.90;;;;;;5035869;28;20484;-90
2021/07/23 03:35:16;;;;;;;12.52;8.05;;;18.10;99.90;;;;;;5035973;28;20028;-91
2021/07/23 03:37:42;;;;;;;13.63;8.00;;;18.10;99.90;;;;;;5035555;28;20512;-90
2021/07/23 03:40:08;;;;;;;14.10;8.48;;;18.50;99.90;;;;;;5036113;28;20457;-91
2021/07/23 03:42:34;;;;;;;12.23;8.75;;;18.60;99.90;;;;;;5053527;28;20500;-90
2021/07/23 03:45:00;;;;;;;15.55;8.75;;;18.50;99.90;;;;;;5035786;28;20111;-90
2021/07/23 03:47:26;;;;;;;12.00;8.35;;;18.60;99.90;;;;;;5035846;28;20059;-91
2021/07/23 03:49:52;;;;;;;12.40;8.25;;;18.50;99.90;;;;;;5035860;28;20060;-91
2021/07/23 03:52:17;;;;;;;12.50;7.95;;;18.40;99.90;;;;;;5035681;28;20033;-91
2021/07/23 03:54:43;;;;;;;12.57;8.13;;;18.20;99.90;;;;;;5035988;28;20037;-91
2021/07/23 03:57:09;;;;;;;14.73;8.77;;;18.30;99.90;;;;;;5035640;28;20472;-91
2021/07/23 03:59:35;;;;;;;16.27;8.68;;;18.40;99.90;;;;;;5053379;28;20067;-90
2021/07/23 04:02:02;;;;;;;17.25;8.43;;;18.30;99.90;;;;;;5035826;28;20122;-90
2021/07/23 04:04:27;;;;;;;14.30;8.60;;;18.30;99.90;;;;;;5035670;28;20021;-91
2021/07/23 04:07:00;;;;;;;10.45;7.65;;;18.10;99.90;;;;;;5035493;28;20055;-90
2021/07/23 04:09:27;;;;;;;15.13;8.82;;;18.20;99.90;;;;;;5035631;28;20426;-91
2021/07/23 04:11:53;;;;;;;15.88;8.77;;;18.10;99.90;;;;;;5037419;28;20078;-91
2021/07/23 04:14:20;;;;;;;15.63;8.60;;;17.90;99.90;;;;;;5039618;28;20020;-90
2021/07/23 04:16:45;;;;;;;11.95;8.32;;;17.90;99.90;;;;;;5039452;28;20478;-91
2021/07/23 04:19:11;;;;;;;12.95;8.20;;;18.10;99.90;;;;;;5039624;28;20112;-91
2021/07/23 04:21:37;;;;;;;11.93;8.27;;;18.30;99.90;;;;;;5039519;28;20052;-90
2021/07/23 04:24:03;;;;;;;13.30;8.07;;;18.10;99.90;;;;;;5057306;28;20416;-91
2021/07/23 04:26:29;;;;;;;13.15;8.25;;;18.20;99.90;;;;;;5039639;28;20381;-91
2021/07/23 04:28:55;;;;;;;11.57;8.63;;;18.30;99.90;;;;;;5039294;28;20032;-91
2021/07/23 04:31:20;;;;;;;10.90;7.80;;;18.30;99.90;;;;;;5039221;28;20119;-90
2021/07/23 04:33:46;;;;;;;10.85;8.48;;;18.00;99.90;;;;;;5039205;28;20032;-91
2021/07/23 04:36:12;;;;;;;13.45;8.32;;;18.00;99.90;;;;;;5039039;28;20032;-90
2021/07/23 04:38:37;;;;;;;11.73;8.05;;;18.30;99.90;;;;;;5038986;28;20049;-91
2021/07/23 04:41:04;;;;;;;12.25;8.27;;;18.30;99.90;;;;;;5039109;28;20037;-91
2021/07/23 04:43:31;;;;;;;11.57;8.23;;;18.10;99.90;;;;;;5056805;28;20021;-91
2021/07/23 04:45:57;;;;;;;11.32;7.70;;;17.90;99.90;;;;;;5039118;28;20472;-91
2021/07/23 04:48:23;;;;;;;16.58;8.60;;;18.10;99.90;;;;;;5038985;28;20528;-90
2021/07/23 04:50:50;;;;;;;10.80;8.40;;;18.30;99.90;;;;;;5065915;28;20025;-88
2021/07/23 04:53:16;;;;;;;12.18;8.55;;;18.20;99.90;;;;;;5054666;28;20028;-90
2021/07/23 04:55:42;;;;;;;13.55;8.30;;;18.00;99.90;;;;;;5044601;28;20036;-90
2021/07/23 04:58:08;;;;;;;13.65;8.07;;;17.80;99.90;;;;;;5058639;28;20032;-90
2021/07/23 05:00:34;;;;;;;15.60;8.70;;;18.10;99.90;;;;;;5039518;28;20021;-90
2021/07/23 05:02:59;;;;;;;11.70;8.52;;;18.10;99.90;;;;;;5038792;28;20021;-90
2021/07/23 05:05:26;;;;;;;13.90;8.63;;;18.10;99.90;;;;;;5038521;28;20036;-90
2021/07/23 05:07:52;;;;;;;10.60;8.38;;;18.30;99.90;;;;;;5038615;28;20025;-89
2021/07/23 05:10:17;;;;;;;10.57;8.60;;;18.50;99.90;;;;;;5038370;28;20043;-90
2021/07/23 05:12:45;;;;;;;11.63;8.90;;;18.50;99.90;;;;;;5038446;28;20040;-90
2021/07/23 05:15:11;;;;;;;14.02;8.43;;;18.60;99.90;;;;;;5038424;28;20029;-90
2021/07/23 05:17:41;;;;;;;14.60;9.07;;;18.70;99.90;;;;;;5038319;28;20123;-90
2021/07/23 05:20:08;;;;;;;14.57;8.55;;;18.70;99.90;;;;;;5038184;28;20037;-90
2021/07/23 05:22:35;;;;;;;11.57;9.02;;;18.60;99.90;;;;;;5037778;28;20056;-90
2021/07/23 05:25:01;;;;;;;10.98;8.10;;;18.50;99.90;;;;;;5037965;28;20468;-89
2021/07/23 05:27:28;;;;;;;12.57;8.57;;;18.70;99.90;;;;;;5038406;28;20021;-90
2021/07/23 05:29:54;;;;;;;13.50;8.50;;;18.70;99.90;;;;;;5056014;28;20025;-90
2021/07/23 05:32:19;;;;;;;13.05;8.88;;;19.00;99.90;;;;;;5055840;28;20100;-90
2021/07/23 05:34:45;;;;;;;10.48;8.05;;;18.90;99.90;;;;;;5037912;28;20037;-90
2021/07/23 05:37:10;;;;;;;13.68;8.40;;;18.80;99.90;;;;;;5036007;28;20108;-90
2021/07/23 05:39:40;;;;;;;12.00;8.38;;;19.10;99.90;;;;;;5017946;28;20389;-90
2021/07/23 05:42:06;;;;;;;16.40;7.47;;;19.20;99.90;;;;;;5017977;28;20021;-90
2021/07/23 05:44:31;;;;;;;13.40;8.85;;;19.00;99.90;;;;;;5018156;28;20018;-90
2021/07/23 05:47:00;;;;;;;12.27;9.20;;;19.00;99.90;;;;;;5018727;28;20429;-89
2021/07/23 05:49:27;;;;;;;10.75;8.07;;;19.00;99.90;;;;;;5035629;28;20546;-90
2021/07/23 05:51:52;;;;;;;13.52;9.02;;;19.10;99.90;;;;;;5017857;28;20025;-90
2021/07/23 05:54:18;;;;;;;14.43;9.00;;;19.20;99.90;;;;;;5017608;28;20029;-90
2021/07/23 05:56:44;;;;;;;19.20;9.57;;;19.00;99.90;;;;;;5017887;28;20025;-90
2021/07/23 05:59:09;;;;;;;14.32;8.90;;;18.90;99.90;;;;;;5017909;28;20040;-89
2021/07/23 06:01:35;;;;;;;13.35;8.25;;;19.00;99.90;;;;;;5017663;28;20172;-90
2021/07/23 06:04:01;;;;;;;14.20;8.50;;;19.00;99.90;;;;;;5017956;28;20055;-90
2021/07/23 06:06:27;;;;;;;12.73;9.15;;;19.10;99.90;;;;;;5035365;28;20029;-90
2021/07/23 06:08:54;;;;;;;12.75;8.80;;;19.30;99.90;;;;;;5017403;28;20545;-90
2021/07/23 06:11:20;;;;;;;14.23;8.80;;;19.30;99.90;;;;;;5035257;28;20465;-90
2021/07/23 06:13:45;;;;;;;13.18;8.98;;;19.40;99.90;;;;;;5017284;28;20029;-90
2021/07/23 06:16:13;;;;;;;19.20;8.82;;;19.30;99.90;;;;;;5017254;28;20477;-90
2021/07/23 06:18:39;;;;;;;13.55;8.80;;;19.40;99.90;;;;;;5018246;28;20469;-90
2021/07/23 06:21:07;;;;;;;12.75;9.02;;;19.20;99.90;;;;;;5017128;28;20212;-90
2021/07/23 06:23:32;;;;;;;13.82;8.50;;;19.20;99.90;;;;;;5034790;28;20413;-90
2021/07/23 06:26:03;;;;;;;12.52;8.20;;;19.30;99.90;;;;;;5017077;28;20060;-90
2021/07/23 06:28:29;;;;;;;12.68;9.10;;;19.50;99.90;;;;;;5016937;28;20428;-90
2021/07/23 06:31:03;;;;;;;12.90;8.88;;;19.40;99.90;;;;;;5034935;28;20029;-90
2021/07/23 06:33:28;;;;;;;17.25;8.75;;;19.70;99.90;;;;;;5017004;28;20017;-90
2021/07/23 06:35:54;;;;;;;15.55;8.25;;;19.90;99.90;;;;;;5016729;28;20116;-90
2021/07/23 06:38:20;;;;;;;11.07;8.73;;;20.00;99.90;;;;;;5027529;28;20048;-90
2021/07/23 06:40:45;;;;;;;13.05;8.98;;;20.20;99.90;;;;;;5036448;28;20025;-90
2021/07/23 06:43:12;;;;;;;14.60;8.65;;;20.30;99.90;;;;;;5036531;28;20476;-90
2021/07/23 06:45:38;;;;;;;14.52;8.43;;;20.30;99.90;;;;;;5036352;28;20028;-90
2021/07/23 06:48:04;;;;;;;19.33;9.25;;;20.40;99.90;;;;;;5036516;28;20025;-91
2021/07/23 06:50:31;;;;;;;18.17;9.05;;;20.30;99.90;;;;;;5054199;28;20029;-90
2021/07/23 06:52:58;;;;;;;15.00;8.85;;;20.50;99.90;;;;;;5036294;28;20029;-89
2021/07/23 06:55:23;;;;;;;12.80;9.63;;;20.50;99.90;;;;;;5036313;28;20120;-90
2021/07/23 06:57:49;;;;;;;12.75;8.95;;;20.60;99.90;;;;;;5036554;28;20053;-90
2021/07/23 07:00:15;;;;;;;11.25;8.27;;;20.60;99.90;;;;;;5036505;28;20120;-90
2021/07/23 07:02:41;;;;;;;17.60;9.20;;;20.70;99.90;;;;;;5059693;28;20013;-90
2021/07/23 07:05:07;;;;;;;12.57;9.10;;;20.90;99.90;;;;;;5051720;28;20049;-88
2021/07/23 07:07:33;;;;;;;11.93;8.10;;;20.90;99.90;;;;;;5046030;28;20461;-89
2021/07/23 07:09:58;;;;;;;18.70;9.60;;;20.80;99.90;;;;;;5055976;28;20032;-90
2021/07/23 07:12:24;;;;;;;12.57;8.57;;;20.90;99.90;;;;;;5036636;28;20029;-90
2021/07/23 07:14:51;;;;;;;13.43;8.93;;;21.00;99.90;;;;;;5036558;28;20031;-90
2021/07/23 07:17:18;;;;;;;15.38;8.30;;;21.10;99.90;;;;;;5053889;28;20048;-90
2021/07/23 07:19:44;;;;;;;12.77;8.10;;;21.40;99.90;;;;;;5036019;28;20108;-90
2021/07/23 07:22:10;;;;;;;12.27;8.30;;;21.30;99.90;;;;;;5036076;28;20039;-90
2021/07/23 07:24:36;;;;;;;14.77;8.55;;;21.30;99.90;;;;;;5035702;28;20443;-90
2021/07/23 07:27:02;;;;;;;16.35;8.80;;;21.30;99.90;;;;;;5036038;28;20025;-90
2021/07/23 07:29:27;;;;;;;10.60;8.00;;;21.30;99.90;;;;;;5036091;28;20055;-90
2021/07/23 07:31:53;;;;;;;13.25;8.73;;;21.50;99.90;;;;;;5053952;28;20495;-90
2021/07/23 07:34:19;;;;;;;15.45;9.45;;;21.60;99.90;;;;;;5035773;28;20027;-90
2021/07/23 07:36:44;;;;;;;13.30;8.15;;;21.60;99.90;;;;;;5053478;28;20512;-90
2021/07/23 07:39:11;;;;;;;14.82;7.82;;;21.70;99.90;;;;;;5035401;28;20390;-90
2021/07/23 07:41:37;;;;;;;10.02;7.97;;;21.80;99.90;;;;;;5053505;28;20070;-90
2021/07/23 07:44:04;;;;;;;10.65;7.15;;;21.90;99.90;;;;;;5053439;28;20017;-89
2021/07/23 07:46:29;;;;;;;11.05;8.48;;;22.20;99.90;;;;;;5035029;28;20431;-90
2021/07/23 07:48:55;;;;;;;13.32;7.95;;;22.30;99.90;;;;;;5035595;28;20159;-90
2021/07/23 07:51:21;;;;;;;16.40;8.45;;;22.30;99.90;;;;;;5035534;28;20055;-90
2021/07/23 07:53:46;;;;;;;11.65;8.05;;;22.20;99.90;;;;;;5053481;28;20392;-90
2021/07/23 07:56:13;;;;;;;10.30;7.97;;;22.30;99.90;;;;;;5035350;28;20495;-89
2021/07/23 07:58:39;;;;;;;12.35;8.73;;;22.30;99.90;;;;;;5035348;28;20107;-90
2021/07/23 08:01:07;;;;;;;11.07;7.88;;;22.50;99.90;;;;;;5035415;28;20029;-89
2021/07/23 08:03:32;;;;;;;15.48;8.45;;;22.60;99.90;;;;;;5035164;28;20031;-90
2021/07/23 08:06:02;;;;;;;12.10;7.70;;;22.70;99.90;;;;;;5035289;28;20384;-89
2021/07/23 08:08:28;;;;;;;15.10;7.72;;;22.70;99.90;;;;;;5035419;28;20025;-89
2021/07/23 08:10:54;;;;;;;14.48;8.68;;;22.80;99.90;;;;;;5035520;28;20036;-89
2021/07/23 08:13:20;;;;;;;13.77;7.95;;;22.80;99.90;;;;;;5035305;28;20056;-89
2021/07/23 08:15:46;;;;;;;22.50;8.07;;;22.80;99.90;;;;;;5036468;28;20078;-90
2021/07/23 08:18:14;;;;;;;19.25;8.27;;;23.00;99.90;;;;;;5037382;28;20522;-89
2021/07/23 08:20:41;;;;;;;14.10;7.95;;;23.00;99.90;;;;;;5036637;28;20071;-89
2021/07/23 08:23:07;;;;;;;16.20;8.27;;;23.20;99.90;;;;;;5036907;28;20025;-90
2021/07/23 08:25:33;;;;;;;14.55;8.10;;;23.30;99.90;;;;;;5036926;28;20029;-89
2021/07/23 08:27:58;;;;;;;20.58;9.02;;;23.30;99.90;;;;;;5054307;28;20016;-89
2021/07/23 08:30:24;;;;;;;14.98;9.05;;;23.30;99.90;;;;;;5036508;28;20168;-89
2021/07/23 08:32:50;;;;;;;18.45;8.85;;;23.30;99.90;;;;;;5036693;28;20418;-89
2021/07/23 08:35:15;;;;;;;12.15;8.15;;;23.40;99.90;;;;;;5036921;28;20036;-89
2021/07/23 08:37:42;;;;;;;16.10;7.72;;;23.60;99.90;;;;;;5036634;28;20073;-89
2021/07/23 08:40:08;;;;;;;14.82;7.70;;;23.70;99.90;;;;;;5037145;28;20374;-89
2021/07/23 08:42:35;;;;;;;18.15;8.25;;;23.80;99.90;;;;;;5036375;28;20090;-90
2021/07/23 08:45:06;;;;;;;12.35;7.55;;;23.80;99.60;;;;;;5036573;28;20472;-89
2021/07/23 08:47:33;;;;;;;14.25;7.57;;;23.80;99.90;;;;;;5037726;28;20056;-90
2021/07/23 08:49:59;;;;;;;14.18;7.45;;;23.90;99.90;;;;;;5037077;28;20032;-90
2021/07/23 08:52:48;;;;;;;12.70;7.85;;;24.00;99.90;;;;;;5055086;28;20029;-90
2021/07/23 08:55:15;;;;;;;16.40;8.75;;;24.20;99.90;;;;;;5036491;28;20438;-89
2021/07/23 08:57:42;;;;;;;13.25;8.45;;;24.30;99.50;;;;;;5036846;28;20035;-89
2021/07/23 09:00:13;;;;;;;10.40;7.45;;;24.30;99.10;;;;;;5058152;28;20051;-89
2021/07/23 09:02:58;;;;;;;11.55;8.02;;;24.50;98.80;;;;;;5040505;28;20139;-89
2021/07/23 09:05:36;;;;;;;13.73;8.25;;;24.50;99.60;;;;;;5040376;28;20028;-89
2021/07/23 09:08:07;;;;;;;11.55;7.80;;;24.50;99.50;;;;;;5040053;28;20048;-89
2021/07/23 09:10:34;;;;;;;10.00;7.93;;;24.70;99.20;;;;;;5039489;28;20029;-89
2021/07/23 09:13:05;;;;;;;16.65;8.30;;;24.90;98.90;;;;;;5056880;28;20029;-89
2021/07/23 09:15:39;;;;;;;14.77;7.82;;;24.90;97.90;;;;;;5046688;28;20392;-89
2021/07/23 09:18:07;;;;;;;15.50;8.75;;;24.80;98.30;;;;;;5044772;28;20116;-89
2021/07/23 09:20:33;;;;;;;15.57;7.55;;;24.90;97.90;;;;;;5059303;28;20032;-89
2021/07/23 09:23:02;;;;;;;17.88;8.80;;;24.90;98.70;;;;;;5040466;28;20017;-89
2021/07/23 09:25:35;;;;;;;18.92;8.52;;;25.20;98.40;;;;;;5057554;28;20116;-89
2021/07/23 09:28:01;;;;;;;20.80;8.07;;;25.30;97.70;;;;;;5039772;28;20389;-89
2021/07/23 09:30:46;;;;;;;14.80;8.05;;;25.50;97.80;;;;;;5057509;28;20028;-89
2021/07/23 09:33:12;;;;;;;13.32;7.85;;;25.70;98.40;;;;;;5057913;28;20025;-88
2021/07/23 09:35:50;;;;;;;13.75;8.43;;;25.90;98.10;;;;;;5039162;28;20033;-88
2021/07/23 09:38:16;;;;;;;12.70;8.23;;;26.00;98.10;;;;;;5039143;28;20408;-89
2021/07/23 09:40:44;;;;;;;11.75;7.90;;;26.00;97.10;;;;;;5039518;28;20021;-89
2021/07/23 09:43:10;;;;;;;14.65;8.68;;;26.30;97.50;;;;;;5039624;28;20025;-89
2021/07/23 09:45:36;;;;;;;12.55;8.00;;;26.30;96.20;;;;;;5057147;28;20031;-89
2021/07/23 09:48:12;;;;;;;13.35;8.43;;;26.40;95.20;;;;;;5039245;28;20025;-89
2021/07/23 09:50:39;;;;;;;13.98;8.23;;;26.60;95.00;;;;;;5057569;28;20059;-90
2021/07/23 09:53:09;;;;;;;14.02;7.82;;;26.70;95.00;;;;;;5039609;28;20325;-89
2021/07/23 09:55:35;;;;;;;10.43;7.75;;;26.70;94.90;;;;;;5039417;28;20029;-89
2021/07/23 09:58:05;;;;;;;12.95;8.00;;;26.70;95.70;;;;;;5039002;28;20511;-88
2021/07/23 10:00:35;;;;;;;13.98;8.63;;;27.10;95.10;;;;;;5039072;28;20472;-88
2021/07/23 10:03:04;;;;;;;18.08;8.20;;;27.20;93.90;;;;;;5040246;28;20025;-88
2021/07/23 10:05:34;;;;;;;11.75;7.68;;;27.30;94.50;;;;;;5039510;28;20476;-88
2021/07/23 10:08:05;;;;;;;16.55;8.23;;;27.50;94.30;;;;;;5038721;28;20021;-88
2021/07/23 10:10:31;;;;;;;14.23;8.23;;;26.90;95.10;;;;;;5055981;28;20021;-88
2021/07/23 10:12:58;;;;;;;20.27;8.55;;;26.80;94.80;;;;;;5057079;28;20029;-88
2021/07/23 10:15:25;;;;;;;11.82;8.32;;;27.10;94.60;;;;;;5039644;28;20029;-89
2021/07/23 10:17:51;;;;;;;13.82;7.32;;;27.40;94.70;;;;;;5039950;28;20064;-88
2021/07/23 10:20:20;;;;;;;13.18;8.43;;;27.60;94.40;;;;;;5038709;28;20075;-89
2021/07/23 10:22:53;;;;;;;10.05;7.40;;;27.50;93.70;;;;;;5038677;28;20025;-89
2021/07/23 10:25:25;;;;;;;16.75;7.82;;;27.60;94.10;;;;;;5055249;28;20021;-89
2021/07/23 10:27:52;;;;;;;10.73;7.53;;;27.90;93.20;;;;;;5038437;28;20435;-88
2021/07/23 10:30:31;;;;;;;12.10;7.57;;;28.20;93.50;;;;;;5038605;28;20025;-88
2021/07/23 10:32:57;;;;;;;12.90;7.72;;;28.50;93.10;;;;;;5038433;28;20138;-89
2021/07/23 10:35:25;;;;;;;12.23;7.68;;;28.40;92.50;;;;;;5037498;28;20050;-88
2021/07/23 10:37:53;;;;;;;11.63;7.93;;;28.20;92.90;;;;;;5037662;28;20049;-89
2021/07/23 10:40:22;;;;;;;19.92;7.63;;;28.70;91.50;;;;;;5037586;28;20086;-89
2021/07/23 10:42:49;;;;;;;10.35;7.80;;;28.50;91.80;;;;;;5037931;28;20542;-88
2021/07/23 10:45:21;;;;;;;11.23;7.03;;;28.30;91.60;;;;;;5055692;28;20100;-89
2021/07/23 10:47:48;;;;;;;15.48;7.70;;;28.20;91.60;;;;;;5055725;28;20384;-88
2021/07/23 10:50:20;;;;;;;11.82;7.10;;;28.30;91.70;;;;;;5054966;28;20025;-87
2021/07/23 10:52:45;;;;;;;11.73;7.72;;;28.60;91.40;;;;;;5055554;28;20032;-88
2021/07/23 10:55:22;;;;;;;11.98;7.40;;;28.90;92.00;;;;;;5036984;28;20116;-87
2021/07/23 10:58:08;;;;;;;10.90;7.10;;;29.50;90.70;;;;;;5037049;28;20025;-88
2021/07/23 11:00:47;;;;;;;11.68;7.40;;;29.80;91.10;;;;;;5023355;28;20029;-88
2021/07/23 11:03:40;;;;;;;12.02;7.47;;;29.90;91.00;;;;;;5037144;28;20025;-88
2021/07/23 11:06:23;;;;;;;11.25;7.55;;;28.90;91.10;;;;;;5036955;28;20025;-88
2021/07/23 11:08:53;;;;;;;12.52;7.45;;;28.90;91.60;;;;;;5054878;28;20358;-89
2021/07/23 11:11:21;;;;;;;11.85;7.03;;;29.50;90.90;;;;;;5055066;28;20028;-89
2021/07/23 11:13:47;;;;;;;13.65;7.18;;;29.00;92.10;;;;;;5037112;28;20028;-88
2021/07/23 11:16:27;;;;;;;10.00;7.28;;;28.50;92.10;;;;;;5055176;28;20017;-88
2021/07/23 11:19:00;;;;;;;10.88;7.18;;;28.60;92.20;;;;;;5036968;28;20021;-88
2021/07/23 11:21:45;;;;;;;9.38;7.30;;;29.10;92.10;;;;;;5035939;28;20047;-88
2021/07/23 11:24:13;;;;;;;9.90;7.20;;;29.70;91.70;;;;;;5045481;28;20033;-88
2021/07/23 11:26:51;;;;;;;12.15;7.78;;;29.80;90.40;;;;;;5045313;28;20021;-88
2021/07/23 11:29:30;;;;;;;12.45;7.05;;;30.00;89.20;;;;;;5038018;28;20511;-90
2021/07/23 11:32:04;;;;;;;12.35;7.63;;;29.10;89.90;;;;;;5037878;28;20029;-91
2021/07/23 11:34:36;;;;;;;19.27;8.35;;;29.40;90.20;;;;;;5037171;28;20534;-87
2021/07/23 11:37:15;;;;;;;15.43;7.10;;;30.10;88.90;;;;;;5054399;28;20117;-88
2021/07/23 11:39:48;;;;;;;14.68;7.80;;;29.20;89.20;;;;;;5020234;28;20049;-89
2021/07/23 11:42:16;;;;;;;13.13;7.60;;;29.10;90.60;;;;;;5017743;28;20072;-89
2021/07/23 11:44:55;;;;;;;10.57;7.85;;;29.60;90.10;;;;;;5017377;28;20033;-89
2021/07/23 11:47:26;;;;;;;13.45;7.32;;;29.60;89.40;;;;;;5017403;28;20064;-89
2021/07/23 11:49:51;;;;;;;10.75;7.15;;;29.20;89.40;;;;;;5017432;28;20025;-89
2021/07/23 11:52:21;;;;;;;12.35;7.13;;;29.40;90.00;;;;;;5017171;28;20033;-89
2021/07/23 11:54:48;;;;;;;15.30;7.93;;;28.80;88.70;;;;;;5017284;28;20026;-89
2021/07/23 11:57:14;;;;;;;12.23;6.85;;;28.70;90.40;;;;;;5035209;28;20097;-89
2021/07/23 11:59:40;;;;;;;12.65;7.65;;;28.50;91.10;;;;;;5035138;28;20458;-89
2021/07/23 12:02:09;;;;;;;9.45;7.07;;;28.40;90.10;;;;;;5016555;28;20030;-89
2021/07/23 12:04:39;;;;;;;9.13;7.10;;;28.80;90.70;;;;;;5034945;28;20067;-90
2021/07/23 12:07:05;;;;;;;11.77;7.13;;;29.50;90.00;;;;;;5017215;28;20474;-89
2021/07/23 12:09:31;;;;;;;16.15;7.45;;;30.40;87.60;;;;;;5017652;28;20029;-90
2021/07/23 12:11:57;;;;;;;11.13;6.60;;;30.90;85.80;;;;;;5017161;28;20021;-90
2021/07/23 12:14:25;;;;;;;9.05;6.80;;;31.30;84.20;;;;;;5035014;28;20037;-90
2021/07/23 12:16:52;;;;;;;9.65;6.63;;;31.80;82.50;;;;;;5035277;28;20108;-90
2021/07/23 12:19:18;;;;;;;13.80;7.05;;;32.10;84.00;;;;;;5017388;28;20030;-90
2021/07/23 12:21:44;;;;;;;14.55;6.80;;;32.20;82.40;;;;;;5034506;28;20079;-90
2021/07/23 12:24:11;;;;;;;8.85;6.57;;;32.10;83.00;;;;;;5017334;28;20034;-90
2021/07/23 12:26:41;;;;;;;12.18;6.68;;;32.00;82.90;;;;;;5034687;28;20096;-90
2021/07/23 12:29:09;;;;;;;10.00;6.78;;;32.10;80.90;;;;;;5017407;28;20025;-90
2021/07/23 12:31:37;;;;;;;25.27;6.63;;;32.40;80.40;;;;;;5017260;28;20546;-89
2021/07/23 12:34:23;;;;;;;15.63;7.18;;;32.80;79.70;;;;;;5020936;28;20025;-90
2021/07/23 12:36:52;;;;;;;12.18;6.88;;;33.00;79.50;;;;;;5021013;28;20025;-90
2021/07/23 12:39:22;;;;;;;13.27;6.45;;;33.20;76.60;;;;;;5039715;28;20096;-89